Avery, Arkansas
Current Conditions -  °F | °C
As of 7:53 AM on Wednesday 22 Oct 2014 (Local Time) from KLLQ Reporting Station
Clear Clear  
Wind Chill: 51°   Ceiling: Unl
Heat Index: 51°   Visibility: 10mi
Dew Point: 48°   Wind: 5mph
Humidity: 89%   Direction: 50°NE
Pressure: 30.17"   Gusts: NA
Location:  33.9283°N, 91.468°W
Report Text: KLLQ 221253Z AUTO 05004KT 10SM CLR 11/09 A3017 RMK AO2 SLP213 T01060089
Loading
Personal Weather Stations






























Interactive Weather Map
Tropical Storm Tracking
New forecast layout! Learn more

10-Day Weather Forecast

Advertisements
Track Severe Weather on mobile